createdAt,value
2018-03-24T00:00:01.100Z,4.10
2018-03-24T00:02:27.600Z,4.10
2018-03-24T00:04:54.080Z,4.00
2018-03-24T00:07:20.592Z,3.90
2018-03-24T00:09:47.118Z,3.80
2018-03-24T00:12:13.609Z,3.80
2018-03-24T00:14:40.096Z,3.80
2018-03-24T00:17:06.651Z,3.70
2018-03-24T00:19:33.153Z,3.60
2018-03-24T00:22:00.401Z,3.60
2018-03-24T00:24:27.645Z,3.70
2018-03-24T00:26:54.135Z,3.70
2018-03-24T00:29:20.636Z,3.70
2018-03-24T00:31:47.185Z,3.70
2018-03-24T00:34:13.694Z,3.70
2018-03-24T00:36:40.247Z,3.70
2018-03-24T00:39:06.756Z,3.70
2018-03-24T00:41:33.235Z,3.70
2018-03-24T00:43:59.741Z,3.80
2018-03-24T00:46:26.974Z,3.70
2018-03-24T00:48:53.471Z,3.70
2018-03-24T00:51:19.956Z,3.70
2018-03-24T00:53:47.217Z,3.60
2018-03-24T00:56:13.738Z,3.60
2018-03-24T00:58:40.233Z,3.50
2018-03-24T01:01:06.764Z,3.50
2018-03-24T01:03:33.249Z,3.50
2018-03-24T01:06:00.500Z,3.50
2018-03-24T01:08:27.034Z,3.40
2018-03-24T01:10:53.585Z,3.50
2018-03-24T01:13:20.851Z,3.50
2018-03-24T01:15:47.328Z,3.50
2018-03-24T01:18:13.807Z,3.60
2018-03-24T01:20:41.956Z,3.60
2018-03-24T01:23:08.430Z,3.50
2018-03-24T01:25:34.958Z,3.70
2018-03-24T01:28:01.458Z,3.70
2018-03-24T01:30:27.970Z,3.70
2018-03-24T01:32:54.472Z,3.70
2018-03-24T01:35:20.992Z,3.70
2018-03-24T01:37:48.226Z,3.70
2018-03-24T01:40:14.762Z,3.70
2018-03-24T01:42:41.266Z,3.70
2018-03-24T01:45:07.776Z,3.60
2018-03-24T01:47:34.320Z,3.60
2018-03-24T01:50:00.829Z,3.60
2018-03-24T01:52:27.324Z,3.50
2018-03-24T01:54:53.814Z,3.50
2018-03-24T01:57:20.318Z,3.50
2018-03-24T01:59:47.570Z,3.50
2018-03-24T02:02:14.784Z,3.50
2018-03-24T02:04:42.053Z,3.60
2018-03-24T02:07:08.523Z,3.60
2018-03-24T02:09:35.009Z,3.60
2018-03-24T02:12:01.503Z,3.80
2018-03-24T02:14:27.975Z,3.90
2018-03-24T02:16:54.517Z,3.70
2018-03-24T02:19:21.651Z,3.50
2018-03-24T02:21:48.179Z,3.40
2018-03-24T02:24:14.717Z,3.40
2018-03-24T02:26:41.236Z,3.30
2018-03-24T02:29:07.714Z,3.30
2018-03-24T02:31:34.260Z,3.30
2018-03-24T02:34:00.761Z,3.40
2018-03-24T02:36:27.812Z,3.40
2018-03-24T02:38:54.305Z,3.30
2018-03-24T02:41:20.807Z,3.30
2018-03-24T02:43:47.331Z,3.30
2018-03-24T02:46:13.797Z,3.20
2018-03-24T02:48:41.644Z,3.10
2018-03-24T02:51:08.910Z,3.20
2018-03-24T02:53:36.136Z,3.20
2018-03-24T02:56:03.379Z,3.20
2018-03-24T02:58:30.519Z,3.10
2018-03-24T03:00:56.998Z,3.20
2018-03-24T03:03:24.225Z,3.10
2018-03-24T03:05:50.702Z,3.10
2018-03-24T03:08:17.180Z,3.10
2018-03-24T03:10:43.702Z,3.10
2018-03-24T03:13:10.236Z,3.10
2018-03-24T03:15:36.775Z,3.00
2018-03-24T03:18:03.269Z,3.00
2018-03-24T03:20:29.776Z,3.10
2018-03-24T03:22:56.325Z,3.10
2018-03-24T03:25:22.830Z,3.10
2018-03-24T03:27:50.096Z,3.10
2018-03-24T03:30:22.583Z,3.00
2018-03-24T03:32:49.118Z,3.10
2018-03-24T03:35:15.597Z,3.10
2018-03-24T03:37:42.091Z,3.10
2018-03-24T03:40:08.617Z,3.00
2018-03-24T03:42:35.104Z,3.00
2018-03-24T03:45:01.582Z,2.90
2018-03-24T03:47:28.117Z,2.80
2018-03-24T03:49:55.390Z,2.80
2018-03-24T03:52:22.640Z,2.80
2018-03-24T03:54:49.113Z,2.80
2018-03-24T03:57:15.600Z,2.90
2018-03-24T03:59:42.140Z,2.90
2018-03-24T04:02:08.654Z,2.90
2018-03-24T04:04:35.162Z,2.90
2018-03-24T04:07:01.654Z,2.80
2018-03-24T04:09:28.932Z,2.80
2018-03-24T04:11:56.160Z,2.90
2018-03-24T04:14:23.381Z,3.10
2018-03-24T04:16:49.875Z,3.10
2018-03-24T04:19:16.367Z,3.20
2018-03-24T04:21:42.850Z,3.10
2018-03-24T04:24:09.336Z,3.10
2018-03-24T04:26:35.838Z,3.00
2018-03-24T04:29:02.380Z,3.00
2018-03-24T04:31:28.913Z,3.00
2018-03-24T04:33:55.418Z,3.00
2018-03-24T04:36:21.945Z,3.00
2018-03-24T04:38:48.470Z,3.00
2018-03-24T04:41:15.016Z,3.00
2018-03-24T04:43:41.512Z,2.90
2018-03-24T04:46:08.022Z,2.90
2018-03-24T04:48:35.248Z,2.90
2018-03-24T04:51:01.783Z,2.90
2018-03-24T04:53:28.282Z,2.90
2018-03-24T04:55:54.758Z,2.90
2018-03-24T04:58:21.230Z,2.80
2018-03-24T05:00:47.710Z,2.80
2018-03-24T05:03:14.202Z,2.90
2018-03-24T05:05:40.738Z,2.80
2018-03-24T05:08:07.305Z,2.80
2018-03-24T05:10:33.839Z,2.70
2018-03-24T05:13:01.075Z,2.70
2018-03-24T05:15:27.545Z,2.70
2018-03-24T05:17:54.030Z,3.00
2018-03-24T05:20:20.570Z,3.30
2018-03-24T05:22:47.068Z,3.10
2018-03-24T05:25:13.560Z,3.00
2018-03-24T05:27:40.805Z,2.90
2018-03-24T05:30:07.286Z,2.80
2018-03-24T05:32:33.792Z,2.90
2018-03-24T05:35:00.388Z,2.90
2018-03-24T05:37:26.948Z,2.90
2018-03-24T05:39:53.461Z,2.80
2018-03-24T05:42:19.963Z,2.70
2018-03-24T05:44:46.456Z,2.80
2018-03-24T05:47:13.709Z,3.20
2018-03-24T05:49:41.001Z,3.30
2018-03-24T05:52:08.332Z,3.30
2018-03-24T05:54:34.832Z,3.30
2018-03-24T05:57:01.399Z,3.20
2018-03-24T05:59:27.931Z,3.30
2018-03-24T06:01:54.398Z,3.20
2018-03-24T06:04:20.874Z,3.20
2018-03-24T06:06:47.380Z,3.20
2018-03-24T06:09:13.899Z,3.40
2018-03-24T06:11:40.401Z,3.50
2018-03-24T06:14:07.645Z,3.30
2018-03-24T06:16:34.467Z,3.30
2018-03-24T06:19:01.741Z,3.30
2018-03-24T06:21:28.265Z,3.20
2018-03-24T06:23:54.742Z,3.20
2018-03-24T06:26:21.219Z,3.30
2018-03-24T06:28:47.758Z,3.20
2018-03-24T06:31:17.170Z,3.30
2018-03-24T06:33:44.468Z,3.40
2018-03-24T06:36:12.744Z,3.40
2018-03-24T06:38:39.281Z,3.30
2018-03-24T06:41:05.822Z,3.30
2018-03-24T06:43:32.297Z,3.40
2018-03-24T06:45:58.782Z,3.30
2018-03-24T06:48:25.277Z,3.30
2018-03-24T06:50:51.853Z,3.30
2018-03-24T06:53:18.365Z,3.40
2018-03-24T06:55:44.866Z,3.40
2018-03-24T06:58:11.358Z,3.40
2018-03-24T07:00:37.897Z,3.50
2018-03-24T07:03:04.462Z,3.40
2018-03-24T07:05:30.955Z,3.50
2018-03-24T07:07:58.164Z,3.60
2018-03-24T07:10:25.378Z,3.50
2018-03-24T07:12:51.860Z,3.50
2018-03-24T07:15:19.188Z,3.50
2018-03-24T07:17:45.662Z,3.50
2018-03-24T07:20:12.175Z,3.50
2018-03-24T07:22:38.780Z,3.60
2018-03-24T07:25:05.317Z,3.60
2018-03-24T07:27:31.810Z,3.60
2018-03-24T07:29:58.303Z,3.60
2018-03-24T07:32:24.839Z,3.70
2018-03-24T07:34:51.300Z,3.70
2018-03-24T07:37:17.816Z,3.80
2018-03-24T07:39:44.300Z,3.80
2018-03-24T07:42:11.529Z,3.90
2018-03-24T07:44:38.056Z,3.90
2018-03-24T07:47:04.556Z,3.90
2018-03-24T07:49:32.001Z,4.00
2018-03-24T07:51:58.473Z,4.10
2018-03-24T07:54:24.968Z,4.20
2018-03-24T07:56:51.442Z,4.40
2018-03-24T07:59:17.913Z,4.40
2018-03-24T08:01:45.143Z,4.40
2018-03-24T08:04:11.686Z,4.40
2018-03-24T08:06:38.228Z,4.60
2018-03-24T08:09:04.766Z,4.70
2018-03-24T08:11:32.148Z,4.70
2018-03-24T08:13:58.649Z,4.60
2018-03-24T08:16:25.235Z,4.80
2018-03-24T08:18:51.707Z,4.90
2018-03-24T08:21:18.191Z,4.90
2018-03-24T08:23:44.709Z,4.80
2018-03-24T08:26:11.978Z,5.00
2018-03-24T08:28:38.541Z,5.00
2018-03-24T08:31:05.050Z,5.20
2018-03-24T08:33:31.574Z,5.40
2018-03-24T08:35:58.259Z,5.50
2018-03-24T08:38:24.840Z,5.60
2018-03-24T08:40:51.326Z,5.60
2018-03-24T08:43:17.857Z,5.70
2018-03-24T08:45:44.397Z,5.90
2018-03-24T08:48:11.727Z,6.10
2018-03-24T08:50:38.282Z,6.40
2018-03-24T08:53:04.799Z,6.60
2018-03-24T08:55:31.279Z,7.50
2018-03-24T08:57:57.790Z,9.10
2018-03-24T09:00:24.328Z,9.80
2018-03-24T09:02:50.886Z,10.60
2018-03-24T09:05:17.407Z,10.50
2018-03-24T09:07:43.899Z,10.30
2018-03-24T09:10:10.557Z,10.00
2018-03-24T09:12:37.015Z,10.00
2018-03-24T09:15:03.636Z,9.80
2018-03-24T09:17:30.157Z,9.40
2018-03-24T09:19:56.631Z,9.00
2018-03-24T09:22:23.102Z,8.80
2018-03-24T09:24:50.314Z,8.80
2018-03-24T09:27:16.854Z,8.80
2018-03-24T09:29:43.324Z,8.70
2018-03-24T09:32:09.914Z,8.60
2018-03-24T09:34:36.386Z,8.30
2018-03-24T09:37:02.870Z,8.20
2018-03-24T09:39:29.432Z,8.20
2018-03-24T09:41:56.037Z,8.30
2018-03-24T09:44:22.639Z,8.40
2018-03-24T09:46:49.910Z,8.60
2018-03-24T09:49:16.377Z,8.60
2018-03-24T09:51:42.848Z,8.40
2018-03-24T09:54:09.394Z,8.50
2018-03-24T09:56:35.885Z,8.70
2018-03-24T09:59:02.468Z,9.10
2018-03-24T10:01:29.719Z,9.90
2018-03-24T10:03:56.332Z,9.80
2018-03-24T10:06:22.923Z,10.70
2018-03-24T10:08:49.376Z,11.10
2018-03-24T10:11:15.863Z,12.00
2018-03-24T10:13:43.132Z,12.10
2018-03-24T10:16:09.668Z,12.10
2018-03-24T10:18:36.166Z,12.90
2018-03-24T10:24:17.288Z,13.20
2018-03-24T10:26:43.775Z,13.40
2018-03-24T10:29:10.289Z,13.10
2018-03-24T10:31:36.788Z,12.40
2018-03-24T10:34:03.325Z,11.40
2018-03-24T10:36:29.830Z,11.20
2018-03-24T10:38:56.429Z,11.00
2018-03-24T10:41:22.964Z,10.90
2018-03-24T10:44:04.358Z,11.10
2018-03-24T10:46:30.837Z,11.40
2018-03-24T10:48:58.051Z,10.80
2018-03-24T10:51:25.291Z,10.30
2018-03-24T10:53:51.799Z,10.30
2018-03-24T10:56:18.327Z,10.00
2018-03-24T10:58:44.798Z,9.60
2018-03-24T11:01:13.132Z,9.70
2018-03-24T11:03:40.424Z,9.70
2018-03-24T11:06:07.010Z,9.70
2018-03-24T11:08:35.311Z,9.60
2018-03-24T11:11:01.785Z,9.60
2018-03-24T11:13:28.306Z,9.40
2018-03-24T11:15:54.749Z,9.10
2018-03-24T11:18:21.968Z,9.10
2018-03-24T11:20:48.544Z,9.10
2018-03-24T11:23:15.125Z,9.10
2018-03-24T11:25:42.386Z,9.00
2018-03-24T11:28:09.604Z,9.00
2018-03-24T11:30:36.063Z,9.00
2018-03-24T11:33:03.314Z,9.10
2018-03-24T11:35:30.518Z,9.20
2018-03-24T11:37:57.020Z,9.10
2018-03-24T11:40:23.478Z,9.50
2018-03-24T11:42:50.010Z,9.40
2018-03-24T11:45:16.485Z,10.00
2018-03-24T11:47:42.953Z,10.30
2018-03-24T11:50:09.438Z,10.40
2018-03-24T11:52:35.912Z,10.40
2018-03-24T11:55:02.377Z,10.30
2018-03-24T11:57:28.901Z,10.30
2018-03-24T11:59:55.463Z,9.90
2018-03-24T12:02:21.967Z,9.70
2018-03-24T12:04:48.434Z,9.70
2018-03-24T12:07:15.015Z,9.70
2018-03-24T12:09:42.242Z,9.80
2018-03-24T12:12:08.741Z,9.70
2018-03-24T12:14:35.281Z,9.80
2018-03-24T12:17:01.749Z,9.70
2018-03-24T12:19:28.234Z,10.00
2018-03-24T12:21:54.696Z,10.00
2018-03-24T12:24:21.208Z,10.10
2018-03-24T12:26:47.688Z,10.10
2018-03-24T12:29:14.164Z,10.30
2018-03-24T12:31:40.741Z,10.50
2018-03-24T12:34:07.163Z,10.30
2018-03-24T12:36:33.661Z,10.30
2018-03-24T12:39:00.159Z,10.40
2018-03-24T12:41:26.653Z,10.20
2018-03-24T12:43:53.153Z,10.00
2018-03-24T12:46:19.621Z,9.60
2018-03-24T12:48:46.097Z,9.80
2018-03-24T12:51:12.574Z,9.70
2018-03-24T12:53:39.066Z,9.70
2018-03-24T12:56:05.550Z,9.60
2018-03-24T12:58:32.034Z,9.40
2018-03-24T13:00:58.527Z,9.30
2018-03-24T13:03:25.050Z,9.20
2018-03-24T13:05:51.556Z,9.40
2018-03-24T13:08:18.812Z,9.20
2018-03-24T13:10:45.315Z,9.10
2018-03-24T13:13:11.808Z,8.90
2018-03-24T13:15:38.385Z,8.90
2018-03-24T13:18:04.874Z,8.90
2018-03-24T13:20:31.354Z,9.00
2018-03-24T13:22:57.842Z,9.30
2018-03-24T13:25:25.089Z,9.00
2018-03-24T13:27:52.306Z,8.90
2018-03-24T13:30:18.826Z,8.90
2018-03-24T13:32:45.309Z,9.00
2018-03-24T13:35:11.811Z,9.00
2018-03-24T13:37:38.385Z,9.10
2018-03-24T13:40:04.876Z,9.10
2018-03-24T13:42:31.370Z,9.10
2018-03-24T13:44:57.853Z,9.10
2018-03-24T13:47:24.371Z,9.10
2018-03-24T13:49:50.854Z,9.00
2018-03-24T13:52:18.077Z,9.00
2018-03-24T13:54:44.650Z,9.00
2018-03-24T13:57:11.141Z,8.90
2018-03-24T13:59:37.613Z,9.00
2018-03-24T14:02:04.178Z,9.10
2018-03-24T14:04:31.430Z,9.20
2018-03-24T14:06:57.986Z,9.20
2018-03-24T14:09:24.476Z,9.20
2018-03-24T14:11:50.969Z,9.10
2018-03-24T14:14:17.472Z,8.80
2018-03-24T14:16:43.965Z,8.80
2018-03-24T14:19:11.198Z,8.80
2018-03-24T14:21:37.703Z,8.80
2018-03-24T14:24:04.202Z,8.80
2018-03-24T14:26:30.678Z,8.70
2018-03-24T14:28:57.271Z,8.60
2018-03-24T14:31:23.758Z,8.70
2018-03-24T14:33:50.280Z,8.70
2018-03-24T14:36:16.824Z,8.80
2018-03-24T14:38:43.348Z,8.80
2018-03-24T14:41:09.834Z,8.90
2018-03-24T14:43:36.402Z,8.90
2018-03-24T14:46:02.915Z,9.00
2018-03-24T14:48:29.390Z,9.10
2018-03-24T14:50:55.876Z,9.20
2018-03-24T14:53:23.143Z,9.30
2018-03-24T14:55:49.618Z,9.30
2018-03-24T14:58:16.094Z,9.40
2018-03-24T15:00:43.371Z,9.60
2018-03-24T15:03:09.841Z,9.50
2018-03-24T15:05:36.462Z,9.30
2018-03-24T15:08:03.098Z,9.10
2018-03-24T15:10:29.587Z,9.00
2018-03-24T15:12:56.069Z,9.00
2018-03-24T15:15:22.539Z,9.00
2018-03-24T15:17:49.022Z,9.10
2018-03-24T15:20:15.530Z,9.20
2018-03-24T15:22:42.753Z,9.00
2018-03-24T15:25:09.235Z,9.00
2018-03-24T15:27:35.741Z,9.00
2018-03-24T15:30:14.334Z,9.00
2018-03-24T15:32:51.824Z,9.00
2018-03-24T15:35:24.382Z,8.70
2018-03-24T15:37:50.927Z,8.60
2018-03-24T15:40:17.414Z,8.60
2018-03-24T15:42:43.990Z,8.50
2018-03-24T15:45:10.477Z,8.60
2018-03-24T15:47:37.013Z,8.50
2018-03-24T15:50:04.242Z,8.30
2018-03-24T15:52:30.811Z,8.30
2018-03-24T15:54:57.373Z,8.20
2018-03-24T15:57:23.957Z,8.10
2018-03-24T15:59:50.490Z,8.20
2018-03-24T16:02:16.985Z,8.20
2018-03-24T16:04:43.557Z,8.20
2018-03-24T16:07:10.080Z,8.30
2018-03-24T16:09:37.298Z,8.00
2018-03-24T16:12:03.821Z,8.00
2018-03-24T16:14:30.425Z,8.00
2018-03-24T16:16:56.910Z,8.00
2018-03-24T16:19:23.369Z,8.00
2018-03-24T16:21:50.671Z,8.10
2018-03-24T16:24:17.205Z,8.10
2018-03-24T16:26:43.681Z,8.00
2018-03-24T16:29:10.196Z,7.80
2018-03-24T16:31:36.703Z,7.80
2018-03-24T16:34:03.936Z,7.70
2018-03-24T16:36:30.420Z,7.70
2018-03-24T16:38:56.945Z,7.70
2018-03-24T16:41:23.673Z,7.60
2018-03-24T16:43:50.193Z,7.60
2018-03-24T16:46:16.807Z,7.50
2018-03-24T16:48:43.374Z,7.40
2018-03-24T16:51:10.837Z,7.40
2018-03-24T16:53:37.538Z,7.30
2018-03-24T16:56:04.224Z,7.40
2018-03-24T16:58:30.867Z,7.40
2018-03-24T17:00:57.458Z,7.30
2018-03-24T17:03:24.149Z,7.30
2018-03-24T17:05:50.908Z,7.20
2018-03-24T17:08:17.626Z,7.20
2018-03-24T17:10:44.125Z,7.10
2018-03-24T17:13:10.756Z,7.10
2018-03-24T17:15:37.399Z,7.10
2018-03-24T17:18:04.844Z,7.00
2018-03-24T17:20:32.113Z,7.00
2018-03-24T17:22:58.848Z,7.00
2018-03-24T17:25:25.395Z,7.00
2018-03-24T17:27:52.770Z,7.00
2018-03-24T17:30:20.113Z,6.90
2018-03-24T17:32:47.612Z,6.90
2018-03-24T17:35:14.354Z,6.90
2018-03-24T17:37:41.124Z,6.90
2018-03-24T17:40:08.030Z,6.90
2018-03-24T17:42:34.720Z,6.90
2018-03-24T17:45:01.327Z,6.90
2018-03-24T17:47:28.014Z,6.90
2018-03-24T17:49:55.427Z,6.70
2018-03-24T17:52:22.025Z,6.70
2018-03-24T17:54:48.835Z,6.60
2018-03-24T17:57:15.597Z,6.60
2018-03-24T17:59:43.090Z,6.50
2018-03-24T18:02:09.748Z,6.50
2018-03-24T18:04:36.498Z,6.50
2018-03-24T18:07:03.257Z,6.40
2018-03-24T18:09:29.911Z,6.40
2018-03-24T18:11:56.674Z,6.40
2018-03-24T18:14:23.316Z,6.30
2018-03-24T18:16:50.118Z,6.30
2018-03-24T18:19:16.961Z,6.30
2018-03-24T18:21:43.780Z,6.30
2018-03-24T18:24:11.270Z,6.20
2018-03-24T18:26:38.674Z,6.20
2018-03-24T18:29:05.545Z,6.20
2018-03-24T18:31:33.178Z,6.10
2018-03-24T18:34:00.231Z,6.10
2018-03-24T18:36:27.173Z,6.10
2018-03-24T18:38:53.905Z,6.10
2018-03-24T18:41:20.594Z,6.00
2018-03-24T18:43:48.105Z,5.90
2018-03-24T18:46:15.074Z,5.90
2018-03-24T18:48:42.455Z,5.80
2018-03-24T18:51:09.873Z,5.80
2018-03-24T18:53:36.617Z,5.80
2018-03-24T18:56:03.728Z,5.80
2018-03-24T18:58:30.504Z,5.70
2018-03-24T19:00:57.264Z,5.70
2018-03-24T19:03:24.160Z,5.60
2018-03-24T19:05:51.515Z,5.60
2018-03-24T19:08:18.411Z,5.60
2018-03-24T19:10:45.193Z,5.50
2018-03-24T19:13:11.875Z,5.50
2018-03-24T19:15:38.436Z,5.40
2018-03-24T19:18:05.018Z,5.40
2018-03-24T19:20:31.610Z,5.40
2018-03-24T19:22:58.232Z,5.40
2018-03-24T19:25:24.901Z,5.30
2018-03-24T19:27:51.616Z,5.20
2018-03-24T19:30:18.340Z,5.10
2018-03-24T19:32:45.280Z,5.10
2018-03-24T19:35:12.774Z,5.00
2018-03-24T19:37:40.241Z,4.90
2018-03-24T19:40:07.698Z,4.80
2018-03-24T19:42:35.396Z,4.80
2018-03-24T19:45:02.437Z,4.80
2018-03-24T19:47:29.045Z,4.70
2018-03-24T19:49:56.298Z,4.60
2018-03-24T19:52:23.834Z,4.60
2018-03-24T19:54:50.696Z,4.60
2018-03-24T19:57:17.412Z,4.50
2018-03-24T19:59:44.082Z,4.50
2018-03-24T20:02:11.581Z,4.30
2018-03-24T20:04:38.450Z,4.30
2018-03-24T20:07:05.301Z,4.30
2018-03-24T20:09:32.064Z,4.30
2018-03-24T20:11:59.624Z,4.20
2018-03-24T20:14:26.341Z,4.20
2018-03-24T20:16:53.065Z,4.20
2018-03-24T20:19:20.639Z,4.20
2018-03-24T20:21:47.608Z,4.10
2018-03-24T20:24:14.577Z,4.10
2018-03-24T20:26:42.013Z,4.10
2018-03-24T20:29:10.652Z,4.00
2018-03-24T20:31:38.304Z,4.00
2018-03-24T20:34:05.007Z,4.00
2018-03-24T20:36:32.199Z,4.00
2018-03-24T20:38:59.666Z,4.00
2018-03-24T20:41:26.412Z,4.00
2018-03-24T20:43:53.281Z,4.20
2018-03-24T20:46:20.023Z,4.10
2018-03-24T20:48:47.516Z,4.00
2018-03-24T20:51:14.523Z,4.00
2018-03-24T20:53:41.288Z,3.90
2018-03-24T20:56:08.035Z,4.00
2018-03-24T20:58:35.047Z,3.90
2018-03-24T21:01:01.634Z,4.00
2018-03-24T21:03:28.123Z,3.80
2018-03-24T21:05:54.614Z,3.80
2018-03-24T21:08:21.391Z,3.70
2018-03-24T21:10:48.212Z,3.60
2018-03-24T21:13:15.877Z,3.60
2018-03-24T21:15:43.190Z,3.60
2018-03-24T21:18:09.955Z,3.60
2018-03-24T21:20:36.661Z,3.70
2018-03-24T21:23:03.259Z,3.70
2018-03-24T21:25:30.073Z,3.50
2018-03-24T21:27:56.747Z,3.50
2018-03-24T21:30:23.565Z,3.50
2018-03-24T21:32:50.169Z,3.50
2018-03-24T21:35:17.047Z,3.50
2018-03-24T21:37:44.449Z,3.60
2018-03-24T21:40:11.721Z,3.60
2018-03-24T21:42:38.263Z,3.60
2018-03-24T21:45:05.105Z,3.60
2018-03-24T21:47:31.669Z,3.70
2018-03-24T21:49:58.203Z,3.70
2018-03-24T21:52:25.693Z,3.50
2018-03-24T21:54:52.308Z,3.50
2018-03-24T21:57:18.913Z,3.50
2018-03-24T21:59:45.407Z,3.40
2018-03-24T22:02:11.919Z,3.60
2018-03-24T22:04:38.447Z,3.70
2018-03-24T22:07:05.760Z,3.80
2018-03-24T22:09:32.250Z,3.80
2018-03-24T22:11:58.824Z,3.50
2018-03-24T22:14:25.346Z,3.50
2018-03-24T22:16:52.654Z,3.40
2018-03-24T22:19:19.177Z,3.40
2018-03-24T22:21:45.673Z,3.30
2018-03-24T22:24:13.088Z,3.30
2018-03-24T22:26:39.615Z,3.30
2018-03-24T22:29:06.112Z,3.30
2018-03-24T22:31:32.699Z,3.30
2018-03-24T22:33:59.281Z,3.30
2018-03-24T22:36:26.549Z,3.50
2018-03-24T22:38:53.144Z,3.50
2018-03-24T22:41:19.668Z,3.40
2018-03-24T22:43:46.183Z,3.30
2018-03-24T22:46:12.806Z,3.20
2018-03-24T22:48:39.313Z,3.10
2018-03-24T22:51:05.809Z,3.10
2018-03-24T22:53:32.313Z,3.10
2018-03-24T22:55:58.786Z,3.10
2018-03-24T22:58:25.265Z,3.00
2018-03-24T23:00:51.785Z,3.00
2018-03-24T23:03:18.284Z,2.90
2018-03-24T23:05:44.811Z,3.00
2018-03-24T23:08:11.367Z,2.90
2018-03-24T23:10:37.859Z,2.90
2018-03-24T23:13:04.399Z,2.80
2018-03-24T23:15:30.950Z,2.80
2018-03-24T23:17:57.488Z,2.80
2018-03-24T23:20:23.978Z,2.80
2018-03-24T23:22:50.530Z,2.80
2018-03-24T23:25:17.008Z,2.80
2018-03-24T23:27:43.573Z,2.80
2018-03-24T23:30:10.075Z,2.80
2018-03-24T23:32:36.628Z,2.80
2018-03-24T23:35:03.139Z,2.80
2018-03-24T23:37:31.044Z,2.70
2018-03-24T23:39:58.446Z,2.70
2018-03-24T23:42:25.022Z,2.60
2018-03-24T23:44:52.981Z,2.70
2018-03-24T23:47:19.522Z,2.70
2018-03-24T23:49:45.992Z,2.70
2018-03-24T23:52:12.465Z,2.70
2018-03-24T23:54:38.969Z,2.70
2018-03-24T23:57:05.456Z,2.80
2018-03-24T23:59:31.925Z,2.80
